sensor_id;sensor_type;location;lat;lon;timestamp;P1;durP1;ratioP1;P2;durP2;ratioP2
12689;SDS011;6409;56.294;14.480;2022-09-09T00:01:28;1.23;;;1.13;;
12689;SDS011;6409;56.294;14.480;2022-09-09T00:04:03;0.83;;;0.83;;
12689;SDS011;6409;56.294;14.480;2022-09-09T00:06:37;4.57;;;1.47;;
12689;SDS011;6409;56.294;14.480;2022-09-09T00:09:10;1.97;;;1.33;;
12689;SDS011;6409;56.294;14.480;2022-09-09T00:11:50;1.17;;;1.07;;
12689;SDS011;6409;56.294;14.480;2022-09-09T00:14:22;4.40;;;1.20;;
12689;SDS011;6409;56.294;14.480;2022-09-09T00:16:54;7.13;;;1.10;;
12689;SDS011;6409;56.294;14.480;2022-09-09T00:19:23;4.10;;;1.40;;
12689;SDS011;6409;56.294;14.480;2022-09-09T00:21:57;6.27;;;1.40;;
12689;SDS011;6409;56.294;14.480;2022-09-09T00:24:32;1.57;;;1.20;;
12689;SDS011;6409;56.294;14.480;2022-09-09T00:27:04;13.70;;;1.30;;
12689;SDS011;6409;56.294;14.480;2022-09-09T00:29:35;3.13;;;1.27;;
12689;SDS011;6409;56.294;14.480;2022-09-09T00:32:11;1.40;;;1.03;;
12689;SDS011;6409;56.294;14.480;2022-09-09T00:34:39;9.70;;;1.30;;
12689;SDS011;6409;56.294;14.480;2022-09-09T00:37:13;3.90;;;1.37;;
12689;SDS011;6409;56.294;14.480;2022-09-09T00:39:41;0.90;;;0.90;;
12689;SDS011;6409;56.294;14.480;2022-09-09T00:42:12;4.17;;;1.03;;
12689;SDS011;6409;56.294;14.480;2022-09-09T00:44:46;3.57;;;1.43;;
12689;SDS011;6409;56.294;14.480;2022-09-09T00:47:21;1.07;;;0.90;;
12689;SDS011;6409;56.294;14.480;2022-09-09T00:50:05;1.27;;;1.10;;
12689;SDS011;6409;56.294;14.480;2022-09-09T00:52:56;1.33;;;1.23;;
12689;SDS011;6409;56.294;14.480;2022-09-09T00:55:33;2.30;;;1.00;;
12689;SDS011;6409;56.294;14.480;2022-09-09T00:58:06;2.70;;;1.20;;
12689;SDS011;6409;56.294;14.480;2022-09-09T01:00:35;1.40;;;1.30;;
12689;SDS011;6409;56.294;14.480;2022-09-09T01:03:11;2.00;;;1.43;;
12689;SDS011;6409;56.294;14.480;2022-09-09T01:05:46;2.40;;;1.07;;
12689;SDS011;6409;56.294;14.480;2022-09-09T01:08:21;3.60;;;1.30;;
12689;SDS011;6409;56.294;14.480;2022-09-09T01:11:00;1.40;;;1.30;;
12689;SDS011;6409;56.294;14.480;2022-09-09T01:13:29;1.70;;;1.20;;
12689;SDS011;6409;56.294;14.480;2022-09-09T01:15:58;3.43;;;1.20;;
12689;SDS011;6409;56.294;14.480;2022-09-09T01:18:27;1.63;;;1.23;;
12689;SDS011;6409;56.294;14.480;2022-09-09T01:21:00;9.40;;;1.40;;
12689;SDS011;6409;56.294;14.480;2022-09-09T01:23:38;4.60;;;1.50;;
12689;SDS011;6409;56.294;14.480;2022-09-09T01:29:00;3.33;;;1.30;;
12689;SDS011;6409;56.294;14.480;2022-09-09T01:31:28;1.40;;;1.30;;
12689;SDS011;6409;56.294;14.480;2022-09-09T01:33:57;2.67;;;1.60;;
12689;SDS011;6409;56.294;14.480;2022-09-09T01:36:26;1.07;;;1.00;;
12689;SDS011;6409;56.294;14.480;2022-09-09T01:38:58;9.50;;;1.80;;
12689;SDS011;6409;56.294;14.480;2022-09-09T01:41:25;2.07;;;1.20;;
12689;SDS011;6409;56.294;14.480;2022-09-09T01:43:54;1.40;;;1.07;;
12689;SDS011;6409;56.294;14.480;2022-09-09T01:46:21;1.77;;;1.20;;
12689;SDS011;6409;56.294;14.480;2022-09-09T01:48:49;2.90;;;1.00;;
12689;SDS011;6409;56.294;14.480;2022-09-09T01:51:16;3.40;;;1.20;;
12689;SDS011;6409;56.294;14.480;2022-09-09T01:53:43;1.47;;;1.10;;
12689;SDS011;6409;56.294;14.480;2022-09-09T01:56:15;0.80;;;0.80;;
12689;SDS011;6409;56.294;14.480;2022-09-09T01:58:52;1.77;;;1.67;;
12689;SDS011;6409;56.294;14.480;2022-09-09T02:01:29;3.37;;;1.53;;
12689;SDS011;6409;56.294;14.480;2022-09-09T02:04:03;2.73;;;1.13;;
12689;SDS011;6409;56.294;14.480;2022-09-09T02:06:35;6.50;;;1.67;;
12689;SDS011;6409;56.294;14.480;2022-09-09T02:09:03;2.63;;;1.83;;
12689;SDS011;6409;56.294;14.480;2022-09-09T02:11:31;3.43;;;2.10;;
12689;SDS011;6409;56.294;14.480;2022-09-09T02:14:01;6.43;;;1.47;;
12689;SDS011;6409;56.294;14.480;2022-09-09T02:16:32;1.10;;;1.00;;
12689;SDS011;6409;56.294;14.480;2022-09-09T02:19:04;1.30;;;1.20;;
12689;SDS011;6409;56.294;14.480;2022-09-09T02:21:34;7.90;;;1.57;;
12689;SDS011;6409;56.294;14.480;2022-09-09T02:24:02;4.57;;;1.47;;
12689;SDS011;6409;56.294;14.480;2022-09-09T02:26:34;5.17;;;1.47;;
12689;SDS011;6409;56.294;14.480;2022-09-09T02:29:04;5.47;;;1.73;;
12689;SDS011;6409;56.294;14.480;2022-09-09T02:31:34;3.67;;;1.77;;
12689;SDS011;6409;56.294;14.480;2022-09-09T02:34:01;8.80;;;1.23;;
12689;SDS011;6409;56.294;14.480;2022-09-09T02:36:30;5.20;;;1.63;;
12689;SDS011;6409;56.294;14.480;2022-09-09T02:38:59;1.83;;;1.47;;
12689;SDS011;6409;56.294;14.480;2022-09-09T02:41:28;3.57;;;2.13;;
12689;SDS011;6409;56.294;14.480;2022-09-09T02:43:58;1.60;;;1.20;;
12689;SDS011;6409;56.294;14.480;2022-09-09T02:46:35;1.30;;;1.20;;
12689;SDS011;6409;56.294;14.480;2022-09-09T02:49:08;2.90;;;1.53;;
12689;SDS011;6409;56.294;14.480;2022-09-09T02:51:45;2.17;;;1.30;;
12689;SDS011;6409;56.294;14.480;2022-09-09T02:54:20;3.97;;;1.50;;
12689;SDS011;6409;56.294;14.480;2022-09-09T02:56:51;3.30;;;1.40;;
12689;SDS011;6409;56.294;14.480;2022-09-09T02:59:21;5.67;;;1.67;;
12689;SDS011;6409;56.294;14.480;2022-09-09T03:01:50;4.27;;;1.30;;
12689;SDS011;6409;56.294;14.480;2022-09-09T03:04:18;3.80;;;1.27;;
12689;SDS011;6409;56.294;14.480;2022-09-09T03:06:45;2.73;;;1.60;;
12689;SDS011;6409;56.294;14.480;2022-09-09T03:09:12;2.80;;;1.20;;
12689;SDS011;6409;56.294;14.480;2022-09-09T03:11:38;1.20;;;1.10;;
12689;SDS011;6409;56.294;14.480;2022-09-09T03:14:05;2.80;;;1.63;;
12689;SDS011;6409;56.294;14.480;2022-09-09T03:16:33;2.63;;;1.43;;
12689;SDS011;6409;56.294;14.480;2022-09-09T03:19:01;2.33;;;1.50;;
12689;SDS011;6409;56.294;14.480;2022-09-09T03:21:28;2.17;;;1.30;;
12689;SDS011;6409;56.294;14.480;2022-09-09T03:23:55;5.30;;;1.80;;
12689;SDS011;6409;56.294;14.480;2022-09-09T03:26:22;2.90;;;1.43;;
12689;SDS011;6409;56.294;14.480;2022-09-09T03:28:49;1.40;;;1.30;;
12689;SDS011;6409;56.294;14.480;2022-09-09T03:31:17;2.30;;;1.40;;
12689;SDS011;6409;56.294;14.480;2022-09-09T03:33:44;1.30;;;1.20;;
12689;SDS011;6409;56.294;14.480;2022-09-09T03:36:12;1.83;;;1.50;;
12689;SDS011;6409;56.294;14.480;2022-09-09T03:38:40;3.60;;;1.37;;
12689;SDS011;6409;56.294;14.480;2022-09-09T03:41:07;2.03;;;1.23;;
12689;SDS011;6409;56.294;14.480;2022-09-09T03:43:34;3.83;;;1.30;;
12689;SDS011;6409;56.294;14.480;2022-09-09T03:46:01;1.73;;;1.60;;
12689;SDS011;6409;56.294;14.480;2022-09-09T03:48:28;1.90;;;1.30;;
12689;SDS011;6409;56.294;14.480;2022-09-09T03:50:55;1.73;;;1.50;;
12689;SDS011;6409;56.294;14.480;2022-09-09T03:53:27;3.80;;;1.50;;
12689;SDS011;6409;56.294;14.480;2022-09-09T03:55:55;4.43;;;1.80;;
12689;SDS011;6409;56.294;14.480;2022-09-09T03:58:25;1.97;;;1.50;;
12689;SDS011;6409;56.294;14.480;2022-09-09T04:00:53;2.73;;;1.60;;
12689;SDS011;6409;56.294;14.480;2022-09-09T04:03:20;1.70;;;1.60;;
12689;SDS011;6409;56.294;14.480;2022-09-09T04:05:49;6.27;;;1.70;;
12689;SDS011;6409;56.294;14.480;2022-09-09T04:08:16;4.40;;;1.33;;
12689;SDS011;6409;56.294;14.480;2022-09-09T04:10:45;2.00;;;1.50;;
12689;SDS011;6409;56.294;14.480;2022-09-09T04:13:12;4.33;;;2.53;;
12689;SDS011;6409;56.294;14.480;2022-09-09T04:15:42;2.30;;;1.33;;
12689;SDS011;6409;56.294;14.480;2022-09-09T04:18:10;3.73;;;1.43;;
12689;SDS011;6409;56.294;14.480;2022-09-09T04:20:37;2.53;;;1.50;;
12689;SDS011;6409;56.294;14.480;2022-09-09T04:23:04;2.20;;;1.70;;
12689;SDS011;6409;56.294;14.480;2022-09-09T04:25:31;3.83;;;2.07;;
12689;SDS011;6409;56.294;14.480;2022-09-09T04:28:00;6.30;;;1.87;;
12689;SDS011;6409;56.294;14.480;2022-09-09T04:30:28;2.93;;;2.23;;
12689;SDS011;6409;56.294;14.480;2022-09-09T04:32:55;4.73;;;1.77;;
12689;SDS011;6409;56.294;14.480;2022-09-09T04:35:23;2.43;;;1.80;;
12689;SDS011;6409;56.294;14.480;2022-09-09T04:37:49;2.67;;;1.50;;
12689;SDS011;6409;56.294;14.480;2022-09-09T04:40:17;2.13;;;1.53;;
12689;SDS011;6409;56.294;14.480;2022-09-09T04:42:44;1.97;;;1.50;;
12689;SDS011;6409;56.294;14.480;2022-09-09T04:45:14;1.57;;;1.40;;
12689;SDS011;6409;56.294;14.480;2022-09-09T04:47:41;2.00;;;1.40;;
12689;SDS011;6409;56.294;14.480;2022-09-09T04:50:08;2.57;;;2.10;;
12689;SDS011;6409;56.294;14.480;2022-09-09T04:52:35;2.30;;;1.70;;
12689;SDS011;6409;56.294;14.480;2022-09-09T04:55:02;7.73;;;1.47;;
12689;SDS011;6409;56.294;14.480;2022-09-09T04:57:30;6.50;;;1.60;;
12689;SDS011;6409;56.294;14.480;2022-09-09T04:59:57;3.40;;;1.70;;
12689;SDS011;6409;56.294;14.480;2022-09-09T05:02:26;2.53;;;1.43;;
12689;SDS011;6409;56.294;14.480;2022-09-09T05:04:53;4.77;;;2.07;;
12689;SDS011;6409;56.294;14.480;2022-09-09T05:07:20;1.97;;;1.33;;
12689;SDS011;6409;56.294;14.480;2022-09-09T05:09:47;5.60;;;1.90;;
12689;SDS011;6409;56.294;14.480;2022-09-09T05:12:14;6.27;;;1.23;;
12689;SDS011;6409;56.294;14.480;2022-09-09T05:14:41;1.40;;;1.30;;
12689;SDS011;6409;56.294;14.480;2022-09-09T05:17:09;7.07;;;1.77;;
12689;SDS011;6409;56.294;14.480;2022-09-09T05:19:37;3.57;;;1.77;;
12689;SDS011;6409;56.294;14.480;2022-09-09T05:22:04;3.03;;;1.70;;
12689;SDS011;6409;56.294;14.480;2022-09-09T05:24:31;5.27;;;2.30;;
12689;SDS011;6409;56.294;14.480;2022-09-09T05:26:58;2.33;;;1.67;;
12689;SDS011;6409;56.294;14.480;2022-09-09T05:29:27;2.13;;;1.47;;
12689;SDS011;6409;56.294;14.480;2022-09-09T05:31:54;1.50;;;1.40;;
12689;SDS011;6409;56.294;14.480;2022-09-09T05:34:21;3.40;;;1.93;;
12689;SDS011;6409;56.294;14.480;2022-09-09T05:36:50;2.03;;;1.77;;
12689;SDS011;6409;56.294;14.480;2022-09-09T05:39:18;2.90;;;1.77;;
12689;SDS011;6409;56.294;14.480;2022-09-09T05:41:46;6.60;;;2.27;;
12689;SDS011;6409;56.294;14.480;2022-09-09T05:44:13;2.20;;;1.60;;
12689;SDS011;6409;56.294;14.480;2022-09-09T05:46:40;2.73;;;1.17;;
12689;SDS011;6409;56.294;14.480;2022-09-09T05:49:06;1.93;;;1.73;;
12689;SDS011;6409;56.294;14.480;2022-09-09T05:51:33;4.70;;;1.80;;
12689;SDS011;6409;56.294;14.480;2022-09-09T05:54:02;1.97;;;1.83;;
12689;SDS011;6409;56.294;14.480;2022-09-09T05:56:29;2.43;;;1.57;;
12689;SDS011;6409;56.294;14.480;2022-09-09T05:58:57;7.80;;;1.90;;
12689;SDS011;6409;56.294;14.480;2022-09-09T06:01:25;4.13;;;2.20;;
12689;SDS011;6409;56.294;14.480;2022-09-09T06:03:53;7.63;;;2.33;;
12689;SDS011;6409;56.294;14.480;2022-09-09T06:06:21;2.37;;;2.00;;
12689;SDS011;6409;56.294;14.480;2022-09-09T06:08:51;2.00;;;1.50;;
12689;SDS011;6409;56.294;14.480;2022-09-09T06:11:21;3.93;;;1.80;;
12689;SDS011;6409;56.294;14.480;2022-09-09T06:13:49;6.57;;;1.80;;
12689;SDS011;6409;56.294;14.480;2022-09-09T06:16:18;5.70;;;2.57;;
12689;SDS011;6409;56.294;14.480;2022-09-09T06:18:48;4.13;;;1.80;;
12689;SDS011;6409;56.294;14.480;2022-09-09T06:21:16;3.50;;;2.40;;
12689;SDS011;6409;56.294;14.480;2022-09-09T06:23:44;5.43;;;2.30;;
12689;SDS011;6409;56.294;14.480;2022-09-09T06:26:12;4.57;;;2.13;;
12689;SDS011;6409;56.294;14.480;2022-09-09T06:28:41;4.37;;;1.80;;
12689;SDS011;6409;56.294;14.480;2022-09-09T06:31:09;2.53;;;1.80;;
12689;SDS011;6409;56.294;14.480;2022-09-09T06:33:37;8.97;;;2.03;;
12689;SDS011;6409;56.294;14.480;2022-09-09T06:36:06;3.23;;;2.47;;
12689;SDS011;6409;56.294;14.480;2022-09-09T06:38:34;6.20;;;1.90;;
12689;SDS011;6409;56.294;14.480;2022-09-09T06:41:01;4.87;;;2.13;;
12689;SDS011;6409;56.294;14.480;2022-09-09T06:43:28;2.30;;;2.00;;
12689;SDS011;6409;56.294;14.480;2022-09-09T06:45:57;6.03;;;2.33;;
12689;SDS011;6409;56.294;14.480;2022-09-09T06:48:25;4.87;;;1.50;;
12689;SDS011;6409;56.294;14.480;2022-09-09T06:50:59;2.37;;;1.97;;
12689;SDS011;6409;56.294;14.480;2022-09-09T06:53:27;4.03;;;2.37;;
12689;SDS011;6409;56.294;14.480;2022-09-09T06:55:53;3.73;;;2.03;;
12689;SDS011;6409;56.294;14.480;2022-09-09T06:58:20;3.53;;;1.90;;
12689;SDS011;6409;56.294;14.480;2022-09-09T07:00:48;3.43;;;1.90;;
12689;SDS011;6409;56.294;14.480;2022-09-09T07:03:16;3.73;;;1.87;;
12689;SDS011;6409;56.294;14.480;2022-09-09T07:05:43;6.60;;;2.47;;
12689;SDS011;6409;56.294;14.480;2022-09-09T07:08:20;5.63;;;2.23;;
12689;SDS011;6409;56.294;14.480;2022-09-09T07:10:47;2.87;;;2.13;;
12689;SDS011;6409;56.294;14.480;2022-09-09T07:13:14;2.27;;;1.93;;
12689;SDS011;6409;56.294;14.480;2022-09-09T07:15:41;5.93;;;2.07;;
12689;SDS011;6409;56.294;14.480;2022-09-09T07:18:08;3.60;;;2.20;;
12689;SDS011;6409;56.294;14.480;2022-09-09T07:20:36;3.33;;;1.90;;
12689;SDS011;6409;56.294;14.480;2022-09-09T07:23:03;2.23;;;1.90;;
12689;SDS011;6409;56.294;14.480;2022-09-09T07:25:30;3.77;;;1.90;;
12689;SDS011;6409;56.294;14.480;2022-09-09T07:27:57;2.97;;;1.77;;
12689;SDS011;6409;56.294;14.480;2022-09-09T07:30:24;8.87;;;2.20;;
12689;SDS011;6409;56.294;14.480;2022-09-09T07:32:51;3.27;;;1.87;;
12689;SDS011;6409;56.294;14.480;2022-09-09T07:35:18;2.37;;;1.70;;
12689;SDS011;6409;56.294;14.480;2022-09-09T07:37:46;2.17;;;1.87;;
12689;SDS011;6409;56.294;14.480;2022-09-09T07:40:13;3.17;;;2.30;;
12689;SDS011;6409;56.294;14.480;2022-09-09T07:42:40;2.43;;;1.83;;
12689;SDS011;6409;56.294;14.480;2022-09-09T07:45:07;5.17;;;2.00;;
12689;SDS011;6409;56.294;14.480;2022-09-09T07:47:34;2.03;;;1.80;;
12689;SDS011;6409;56.294;14.480;2022-09-09T07:50:01;2.53;;;2.03;;
12689;SDS011;6409;56.294;14.480;2022-09-09T07:52:28;3.57;;;2.00;;
12689;SDS011;6409;56.294;14.480;2022-09-09T07:54:56;2.40;;;2.10;;
12689;SDS011;6409;56.294;14.480;2022-09-09T07:57:23;3.50;;;2.23;;
12689;SDS011;6409;56.294;14.480;2022-09-09T07:59:50;5.73;;;2.63;;
12689;SDS011;6409;56.294;14.480;2022-09-09T08:02:17;6.10;;;1.70;;
12689;SDS011;6409;56.294;14.480;2022-09-09T08:04:44;4.07;;;2.30;;
12689;SDS011;6409;56.294;14.480;2022-09-09T08:07:11;6.37;;;2.57;;
12689;SDS011;6409;56.294;14.480;2022-09-09T08:09:38;2.07;;;1.87;;
12689;SDS011;6409;56.294;14.480;2022-09-09T08:12:07;2.80;;;1.67;;
12689;SDS011;6409;56.294;14.480;2022-09-09T08:14:34;2.40;;;2.13;;
12689;SDS011;6409;56.294;14.480;2022-09-09T08:17:01;2.27;;;1.53;;
12689;SDS011;6409;56.294;14.480;2022-09-09T08:19:28;3.07;;;1.87;;
12689;SDS011;6409;56.294;14.480;2022-09-09T08:21:56;2.13;;;1.83;;
12689;SDS011;6409;56.294;14.480;2022-09-09T08:24:22;2.00;;;1.83;;
12689;SDS011;6409;56.294;14.480;2022-09-09T08:26:49;2.70;;;1.83;;
12689;SDS011;6409;56.294;14.480;2022-09-09T08:29:18;1.50;;;1.40;;
12689;SDS011;6409;56.294;14.480;2022-09-09T08:31:45;1.60;;;1.50;;
12689;SDS011;6409;56.294;14.480;2022-09-09T08:34:14;2.00;;;1.67;;
12689;SDS011;6409;56.294;14.480;2022-09-09T08:36:42;1.60;;;1.50;;
12689;SDS011;6409;56.294;14.480;2022-09-09T08:39:10;1.47;;;1.30;;
12689;SDS011;6409;56.294;14.480;2022-09-09T08:44:46;3.50;;;1.80;;
12689;SDS011;6409;56.294;14.480;2022-09-09T08:47:24;1.57;;;1.30;;
12689;SDS011;6409;56.294;14.480;2022-09-09T08:50:01;3.17;;;2.03;;
12689;SDS011;6409;56.294;14.480;2022-09-09T08:52:36;2.13;;;1.40;;
12689;SDS011;6409;56.294;14.480;2022-09-09T08:55:11;2.33;;;1.40;;
12689;SDS011;6409;56.294;14.480;2022-09-09T08:57:42;1.63;;;1.43;;
12689;SDS011;6409;56.294;14.480;2022-09-09T09:00:12;2.00;;;1.70;;
12689;SDS011;6409;56.294;14.480;2022-09-09T09:02:42;1.90;;;1.47;;
12689;SDS011;6409;56.294;14.480;2022-09-09T09:05:17;2.77;;;1.70;;
12689;SDS011;6409;56.294;14.480;2022-09-09T09:07:52;1.73;;;1.53;;
12689;SDS011;6409;56.294;14.480;2022-09-09T09:10:37;1.40;;;1.30;;
12689;SDS011;6409;56.294;14.480;2022-09-09T09:13:12;1.30;;;1.27;;
12689;SDS011;6409;56.294;14.480;2022-09-09T09:15:42;1.50;;;1.40;;
12689;SDS011;6409;56.294;14.480;2022-09-09T09:18:12;2.63;;;1.37;;
12689;SDS011;6409;56.294;14.480;2022-09-09T09:20:42;1.43;;;1.33;;
12689;SDS011;6409;56.294;14.480;2022-09-09T09:23:19;3.47;;;1.20;;
12689;SDS011;6409;56.294;14.480;2022-09-09T09:25:48;4.13;;;1.43;;
12689;SDS011;6409;56.294;14.480;2022-09-09T09:28:17;1.10;;;1.10;;
12689;SDS011;6409;56.294;14.480;2022-09-09T09:30:49;0.90;;;0.90;;
12689;SDS011;6409;56.294;14.480;2022-09-09T09:33:20;1.30;;;1.20;;
12689;SDS011;6409;56.294;14.480;2022-09-09T09:35:49;1.17;;;0.90;;
12689;SDS011;6409;56.294;14.480;2022-09-09T09:38:20;1.10;;;1.00;;
12689;SDS011;6409;56.294;14.480;2022-09-09T09:40:49;1.23;;;1.10;;
12689;SDS011;6409;56.294;14.480;2022-09-09T09:43:18;1.00;;;1.00;;
12689;SDS011;6409;56.294;14.480;2022-09-09T09:45:50;1.00;;;0.90;;
12689;SDS011;6409;56.294;14.480;2022-09-09T09:48:17;1.10;;;1.00;;
12689;SDS011;6409;56.294;14.480;2022-09-09T09:50:46;0.77;;;0.77;;
12689;SDS011;6409;56.294;14.480;2022-09-09T09:53:20;1.80;;;1.10;;
12689;SDS011;6409;56.294;14.480;2022-09-09T09:55:51;0.80;;;0.80;;
12689;SDS011;6409;56.294;14.480;2022-09-09T09:58:20;1.07;;;0.97;;
12689;SDS011;6409;56.294;14.480;2022-09-09T10:00:47;2.97;;;0.80;;
12689;SDS011;6409;56.294;14.480;2022-09-09T10:03:21;0.70;;;0.70;;
12689;SDS011;6409;56.294;14.480;2022-09-09T10:05:50;0.80;;;0.80;;
12689;SDS011;6409;56.294;14.480;2022-09-09T10:08:17;0.40;;;0.40;;
12689;SDS011;6409;56.294;14.480;2022-09-09T10:10:53;0.77;;;0.77;;
12689;SDS011;6409;56.294;14.480;2022-09-09T10:13:26;0.70;;;0.70;;
12689;SDS011;6409;56.294;14.480;2022-09-09T10:16:06;1.40;;;0.97;;
12689;SDS011;6409;56.294;14.480;2022-09-09T10:18:42;0.50;;;0.50;;
12689;SDS011;6409;56.294;14.480;2022-09-09T10:21:20;0.70;;;0.70;;
12689;SDS011;6409;56.294;14.480;2022-09-09T10:23:58;0.60;;;0.60;;
12689;SDS011;6409;56.294;14.480;2022-09-09T10:26:44;0.50;;;0.50;;
12689;SDS011;6409;56.294;14.480;2022-09-09T10:29:19;0.60;;;0.60;;
12689;SDS011;6409;56.294;14.480;2022-09-09T10:31:54;0.60;;;0.60;;
12689;SDS011;6409;56.294;14.480;2022-09-09T10:34:35;0.53;;;0.53;;
12689;SDS011;6409;56.294;14.480;2022-09-09T10:37:14;0.60;;;0.60;;
12689;SDS011;6409;56.294;14.480;2022-09-09T10:39:47;0.50;;;0.50;;
12689;SDS011;6409;56.294;14.480;2022-09-09T10:42:15;0.43;;;0.43;;
12689;SDS011;6409;56.294;14.480;2022-09-09T10:44:47;0.40;;;0.40;;
12689;SDS011;6409;56.294;14.480;2022-09-09T10:47:24;0.60;;;0.60;;
12689;SDS011;6409;56.294;14.480;2022-09-09T10:50:18;0.60;;;0.60;;
12689;SDS011;6409;56.294;14.480;2022-09-09T10:53:00;0.50;;;0.50;;
12689;SDS011;6409;56.294;14.480;2022-09-09T10:55:32;0.50;;;0.50;;
12689;SDS011;6409;56.294;14.480;2022-09-09T10:58:02;0.50;;;0.50;;
12689;SDS011;6409;56.294;14.480;2022-09-09T11:00:35;0.50;;;0.50;;
12689;SDS011;6409;56.294;14.480;2022-09-09T11:03:06;0.40;;;0.40;;
12689;SDS011;6409;56.294;14.480;2022-09-09T11:05:40;0.50;;;0.50;;
12689;SDS011;6409;56.294;14.480;2022-09-09T11:08:10;0.47;;;0.47;;
12689;SDS011;6409;56.294;14.480;2022-09-09T11:10:41;0.60;;;0.60;;
12689;SDS011;6409;56.294;14.480;2022-09-09T11:13:14;0.60;;;0.60;;
12689;SDS011;6409;56.294;14.480;2022-09-09T11:15:44;0.50;;;0.50;;
12689;SDS011;6409;56.294;14.480;2022-09-09T11:18:15;0.43;;;0.43;;
12689;SDS011;6409;56.294;14.480;2022-09-09T11:20:45;0.57;;;0.57;;
12689;SDS011;6409;56.294;14.480;2022-09-09T11:23:13;0.40;;;0.40;;
12689;SDS011;6409;56.294;14.480;2022-09-09T11:25:42;0.37;;;0.37;;
12689;SDS011;6409;56.294;14.480;2022-09-09T11:31:02;0.67;;;0.67;;
12689;SDS011;6409;56.294;14.480;2022-09-09T11:33:41;0.47;;;0.47;;
12689;SDS011;6409;56.294;14.480;2022-09-09T11:36:24;0.30;;;0.30;;
12689;SDS011;6409;56.294;14.480;2022-09-09T11:39:02;0.40;;;0.40;;
12689;SDS011;6409;56.294;14.480;2022-09-09T11:41:42;0.47;;;0.47;;
12689;SDS011;6409;56.294;14.480;2022-09-09T11:44:10;0.60;;;0.60;;
12689;SDS011;6409;56.294;14.480;2022-09-09T11:46:37;0.50;;;0.50;;
12689;SDS011;6409;56.294;14.480;2022-09-09T11:49:22;0.50;;;0.50;;
12689;SDS011;6409;56.294;14.480;2022-09-09T11:51:53;0.50;;;0.50;;
12689;SDS011;6409;56.294;14.480;2022-09-09T11:54:30;0.50;;;0.50;;
12689;SDS011;6409;56.294;14.480;2022-09-09T11:56:58;0.60;;;0.60;;
12689;SDS011;6409;56.294;14.480;2022-09-09T11:59:26;0.40;;;0.40;;
12689;SDS011;6409;56.294;14.480;2022-09-09T12:01:55;0.60;;;0.60;;
12689;SDS011;6409;56.294;14.480;2022-09-09T12:04:32;0.57;;;0.50;;
12689;SDS011;6409;56.294;14.480;2022-09-09T12:07:02;0.40;;;0.40;;
12689;SDS011;6409;56.294;14.480;2022-09-09T12:09:39;0.50;;;0.50;;
12689;SDS011;6409;56.294;14.480;2022-09-09T12:12:27;0.50;;;0.50;;
12689;SDS011;6409;56.294;14.480;2022-09-09T12:17:46;0.70;;;0.70;;
12689;SDS011;6409;56.294;14.480;2022-09-09T12:20:16;0.50;;;0.50;;
12689;SDS011;6409;56.294;14.480;2022-09-09T12:25:48;0.87;;;0.87;;
12689;SDS011;6409;56.294;14.480;2022-09-09T12:28:20;1.20;;;1.00;;
12689;SDS011;6409;56.294;14.480;2022-09-09T12:30:49;0.90;;;0.90;;
12689;SDS011;6409;56.294;14.480;2022-09-09T12:33:20;1.67;;;0.90;;
12689;SDS011;6409;56.294;14.480;2022-09-09T12:35:51;1.13;;;1.07;;
12689;SDS011;6409;56.294;14.480;2022-09-09T12:38:22;1.00;;;1.00;;
12689;SDS011;6409;56.294;14.480;2022-09-09T12:40:55;1.43;;;1.10;;
12689;SDS011;6409;56.294;14.480;2022-09-09T12:43:23;1.30;;;1.20;;
12689;SDS011;6409;56.294;14.480;2022-09-09T12:45:52;1.30;;;1.20;;
12689;SDS011;6409;56.294;14.480;2022-09-09T12:48:24;1.40;;;1.30;;
12689;SDS011;6409;56.294;14.480;2022-09-09T12:50:56;1.90;;;1.37;;
12689;SDS011;6409;56.294;14.480;2022-09-09T12:53:25;1.67;;;1.50;;
12689;SDS011;6409;56.294;14.480;2022-09-09T12:55:54;1.77;;;1.30;;
12689;SDS011;6409;56.294;14.480;2022-09-09T12:58:23;1.60;;;1.50;;
12689;SDS011;6409;56.294;14.480;2022-09-09T13:00:50;1.40;;;1.30;;
12689;SDS011;6409;56.294;14.480;2022-09-09T13:03:18;2.03;;;1.53;;
12689;SDS011;6409;56.294;14.480;2022-09-09T13:05:46;1.27;;;1.17;;
12689;SDS011;6409;56.294;14.480;2022-09-09T13:08:15;1.40;;;1.30;;
12689;SDS011;6409;56.294;14.480;2022-09-09T13:10:46;5.33;;;1.50;;
12689;SDS011;6409;56.294;14.480;2022-09-09T13:13:16;1.77;;;1.40;;
12689;SDS011;6409;56.294;14.480;2022-09-09T13:15:48;1.30;;;1.20;;
12689;SDS011;6409;56.294;14.480;2022-09-09T13:18:16;1.60;;;1.50;;
12689;SDS011;6409;56.294;14.480;2022-09-09T13:20:46;1.47;;;1.27;;
12689;SDS011;6409;56.294;14.480;2022-09-09T13:23:14;1.67;;;1.33;;
12689;SDS011;6409;56.294;14.480;2022-09-09T13:25:42;1.20;;;1.10;;
12689;SDS011;6409;56.294;14.480;2022-09-09T13:28:20;1.50;;;1.40;;
12689;SDS011;6409;56.294;14.480;2022-09-09T13:30:55;2.00;;;1.33;;
12689;SDS011;6409;56.294;14.480;2022-09-09T13:33:28;1.10;;;1.10;;
12689;SDS011;6409;56.294;14.480;2022-09-09T13:35:57;1.33;;;1.23;;
12689;SDS011;6409;56.294;14.480;2022-09-09T13:38:27;1.63;;;1.33;;
12689;SDS011;6409;56.294;14.480;2022-09-09T13:40:55;3.73;;;1.50;;
12689;SDS011;6409;56.294;14.480;2022-09-09T13:43:25;1.43;;;1.33;;
12689;SDS011;6409;56.294;14.480;2022-09-09T13:45:53;1.63;;;1.53;;
12689;SDS011;6409;56.294;14.480;2022-09-09T13:48:21;3.87;;;1.77;;
12689;SDS011;6409;56.294;14.480;2022-09-09T13:50:53;1.97;;;1.77;;
12689;SDS011;6409;56.294;14.480;2022-09-09T13:53:23;2.10;;;1.67;;
12689;SDS011;6409;56.294;14.480;2022-09-09T13:55:51;2.10;;;1.90;;
12689;SDS011;6409;56.294;14.480;2022-09-09T13:58:18;1.70;;;1.60;;
12689;SDS011;6409;56.294;14.480;2022-09-09T14:00:47;2.30;;;2.10;;
12689;SDS011;6409;56.294;14.480;2022-09-09T14:03:14;2.07;;;1.87;;
12689;SDS011;6409;56.294;14.480;2022-09-09T14:05:41;2.50;;;1.60;;
12689;SDS011;6409;56.294;14.480;2022-09-09T14:08:11;1.40;;;1.30;;
12689;SDS011;6409;56.294;14.480;2022-09-09T14:10:44;1.30;;;1.20;;
12689;SDS011;6409;56.294;14.480;2022-09-09T14:13:12;1.33;;;1.00;;
12689;SDS011;6409;56.294;14.480;2022-09-09T14:15:40;0.70;;;0.70;;
12689;SDS011;6409;56.294;14.480;2022-09-09T14:18:09;1.07;;;1.03;;
12689;SDS011;6409;56.294;14.480;2022-09-09T14:20:37;0.80;;;0.80;;
12689;SDS011;6409;56.294;14.480;2022-09-09T14:23:04;0.70;;;0.70;;
12689;SDS011;6409;56.294;14.480;2022-09-09T14:25:31;0.70;;;0.70;;
12689;SDS011;6409;56.294;14.480;2022-09-09T14:27:59;0.80;;;0.80;;
12689;SDS011;6409;56.294;14.480;2022-09-09T14:30:28;0.70;;;0.70;;
12689;SDS011;6409;56.294;14.480;2022-09-09T14:32:55;0.80;;;0.80;;
12689;SDS011;6409;56.294;14.480;2022-09-09T14:35:22;0.70;;;0.70;;
12689;SDS011;6409;56.294;14.480;2022-09-09T14:37:49;0.80;;;0.80;;
12689;SDS011;6409;56.294;14.480;2022-09-09T14:40:16;0.70;;;0.70;;
12689;SDS011;6409;56.294;14.480;2022-09-09T14:42:43;0.80;;;0.80;;
12689;SDS011;6409;56.294;14.480;2022-09-09T14:45:11;0.70;;;0.70;;
12689;SDS011;6409;56.294;14.480;2022-09-09T14:47:39;0.67;;;0.67;;
12689;SDS011;6409;56.294;14.480;2022-09-09T14:50:07;0.73;;;0.73;;
12689;SDS011;6409;56.294;14.480;2022-09-09T14:52:37;0.67;;;0.67;;
12689;SDS011;6409;56.294;14.480;2022-09-09T14:55:06;0.80;;;0.80;;
12689;SDS011;6409;56.294;14.480;2022-09-09T14:57:33;0.60;;;0.60;;
12689;SDS011;6409;56.294;14.480;2022-09-09T15:00:01;0.83;;;0.83;;
12689;SDS011;6409;56.294;14.480;2022-09-09T15:02:28;1.03;;;0.93;;
12689;SDS011;6409;56.294;14.480;2022-09-09T15:04:57;0.93;;;0.93;;
12689;SDS011;6409;56.294;14.480;2022-09-09T15:07:24;1.80;;;1.20;;
12689;SDS011;6409;56.294;14.480;2022-09-09T15:09:53;1.00;;;1.00;;
12689;SDS011;6409;56.294;14.480;2022-09-09T15:12:20;1.13;;;1.03;;
12689;SDS011;6409;56.294;14.480;2022-09-09T15:14:47;1.00;;;1.00;;
12689;SDS011;6409;56.294;14.480;2022-09-09T15:17:15;1.10;;;1.10;;
12689;SDS011;6409;56.294;14.480;2022-09-09T15:19:42;1.07;;;0.97;;